createdAt,value
2022-09-04T00:04:36.748Z,16.72452
2022-09-04T00:09:37.744Z,16.85665
2022-09-04T00:14:38.719Z,16.64602
2022-09-04T00:19:39.862Z,16.50774
2022-09-04T00:24:40.776Z,16.4202
2022-09-04T00:29:41.688Z,16.25576
2022-09-04T00:34:42.637Z,16.24122
2022-09-04T00:39:43.660Z,16.29905
2022-09-04T00:44:44.613Z,16.45282
2022-09-04T00:49:45.615Z,16.44733
2022-09-04T00:54:46.554Z,16.29129
2022-09-04T00:59:47.562Z,16.10683
2022-09-04T01:04:48.500Z,16.13332
2022-09-04T01:09:49.564Z,15.99634
2022-09-04T01:14:52.064Z,16.20536
2022-09-04T01:19:54.254Z,16.39693
2022-09-04T01:25:00.475Z,16.03834
2022-09-04T01:40:42.386Z,16.0729
2022-09-04T01:45:43.627Z,16.07646
2022-09-04T01:50:44.664Z,15.89748
2022-09-04T01:55:45.836Z,15.74726
2022-09-04T02:11:39.237Z,16.12298
2022-09-04T02:16:40.402Z,16.19147
2022-09-04T02:31:53.411Z,15.88359
2022-09-04T02:42:14.898Z,15.84805
2022-09-04T02:47:15.924Z,15.7912
2022-09-04T02:52:16.901Z,15.74144
2022-09-04T02:57:17.822Z,15.38188
2022-09-04T03:02:18.778Z,15.23586
2022-09-04T03:07:19.793Z,15.17771
2022-09-04T03:12:20.862Z,15.18062
2022-09-04T03:17:21.837Z,15.16672
2022-09-04T03:22:22.744Z,15.09565
2022-09-04T03:32:44.176Z,15.60027
2022-09-04T03:37:45.421Z,15.41903
2022-09-04T03:42:46.350Z,15.27656
2022-09-04T03:47:47.320Z,15.42614
2022-09-04T03:52:48.256Z,15.29982
2022-09-04T04:03:21.216Z,15.40579
2022-09-04T04:08:23.215Z,15.23037
2022-09-04T04:13:24.181Z,15.12246
2022-09-04T04:18:25.325Z,15.42485
2022-09-04T04:23:26.878Z,15.49366
2022-09-04T04:28:28.125Z,15.40805
2022-09-04T04:38:29.601Z,15.25427
2022-09-04T04:43:30.632Z,15.16252
2022-09-04T04:53:52.030Z,15.30079
2022-09-04T04:58:54.133Z,14.99292
2022-09-04T05:03:55.042Z,14.83042
2022-09-04T05:08:55.933Z,14.99744
2022-09-04T05:13:57.006Z,15.10276
2022-09-04T05:24:08.476Z,14.98517
2022-09-04T05:29:09.440Z,15.31856
2022-09-04T05:34:10.353Z,15.28432
2022-09-04T05:44:11.741Z,15.69492
2022-09-04T06:20:31.209Z,15.45909
2022-09-04T06:25:32.642Z,15.48946
2022-09-04T06:30:33.914Z,15.35797
2022-09-04T06:41:15.457Z,16.03317
2022-09-04T06:56:20.556Z,17.15323
2022-09-04T07:03:19.655Z,19.47286
2022-09-04T07:08:20.785Z,18.3237
2022-09-04T07:18:22.362Z,18.14342
2022-09-04T07:54:49.765Z,18.81282
2022-09-04T08:04:51.273Z,19.46607
2022-09-04T08:09:52.353Z,19.48029
2022-09-04T08:19:53.843Z,19.96748
2022-09-04T08:24:54.764Z,20.4046
2022-09-04T08:35:16.658Z,20.59005
2022-09-04T08:40:17.647Z,20.71831
2022-09-04T08:50:59.146Z,20.79036
2022-09-04T08:56:00.349Z,21.2501
2022-09-04T09:01:01.475Z,22.26392
2022-09-04T09:06:02.450Z,22.67327
2022-09-04T09:11:03.432Z,22.08106
2022-09-04T09:16:04.450Z,22.17701
2022-09-04T09:31:28.259Z,26.62079
2022-09-04T09:36:29.189Z,26.51029
2022-09-04T09:41:30.175Z,25.55781
2022-09-04T09:46:31.192Z,25.91321
2022-09-04T09:51:32.080Z,29.48478
2022-09-04T09:56:33.001Z,29.05149
2022-09-04T10:01:34.225Z,27.63597
2022-09-04T10:06:35.718Z,26.18881
2022-09-04T10:11:36.645Z,25.42922
2022-09-04T10:16:37.717Z,25.05217
2022-09-04T10:21:38.761Z,24.91776
2022-09-04T10:26:39.710Z,24.81146
2022-09-04T10:31:40.750Z,24.57819
2022-09-04T10:36:41.725Z,24.55816
2022-09-04T10:41:42.648Z,24.68352
2022-09-04T10:46:43.703Z,24.67221
2022-09-04T10:51:44.607Z,24.81534
2022-09-04T10:56:45.613Z,24.94458
2022-09-04T11:01:46.533Z,24.74103
2022-09-04T11:06:47.529Z,24.75169
2022-09-04T11:11:48.501Z,24.66155
2022-09-04T11:16:50.588Z,24.6622
2022-09-04T11:21:51.799Z,24.46123
2022-09-04T11:26:52.731Z,24.55202
2022-09-04T11:31:53.732Z,24.54104
2022-09-04T11:36:54.789Z,24.46317
2022-09-04T11:41:55.777Z,24.3866
2022-09-04T11:46:56.785Z,24.55687
2022-09-04T11:51:57.707Z,24.63667
2022-09-04T11:56:58.588Z,24.61018
2022-09-04T12:01:59.582Z,24.55945
2022-09-04T12:07:02.327Z,24.7
2022-09-04T12:12:03.593Z,24.94038
2022-09-04T12:17:04.510Z,24.89934
2022-09-04T12:22:05.459Z,25.08383
2022-09-04T12:27:06.394Z,25.35329
2022-09-04T12:32:07.417Z,25.67768
2022-09-04T12:37:08.502Z,25.9284
2022-09-04T12:42:09.489Z,26.10061
2022-09-04T12:47:10.490Z,26.33938
2022-09-04T12:52:11.678Z,26.63889
2022-09-04T12:57:12.708Z,27.25148
2022-09-04T13:02:13.925Z,27.24437
2022-09-04T13:07:15.957Z,27.5426
2022-09-04T13:12:17.310Z,27.90705
2022-09-04T13:17:18.235Z,28.22466
2022-09-04T13:22:19.188Z,28.60657
2022-09-04T13:27:20.314Z,28.48347
2022-09-04T13:32:21.478Z,28.15358
2022-09-04T13:37:22.441Z,28.60851
2022-09-04T13:42:23.375Z,28.82855
2022-09-04T13:47:32.052Z,28.97297
2022-09-04T13:52:34.002Z,28.52386
2022-09-04T13:57:35.494Z,28.37297
2022-09-04T14:02:36.639Z,28.72192
2022-09-04T14:07:38.858Z,29.07863
2022-09-04T14:12:42.589Z,29.32355
2022-09-04T14:17:47.544Z,29.35973
2022-09-04T14:22:48.444Z,29.42339
2022-09-04T14:27:53.122Z,29.51418
2022-09-04T14:32:57.662Z,29.35166
2022-09-04T14:37:58.904Z,29.42985
2022-09-04T14:42:59.837Z,29.06054
2022-09-04T14:48:00.815Z,28.90092
2022-09-04T14:53:01.819Z,28.47022
2022-09-04T14:58:02.929Z,28.83307
2022-09-04T15:03:03.957Z,28.80399
2022-09-04T15:08:05.013Z,28.80141
2022-09-04T15:13:05.925Z,28.64987
2022-09-04T15:18:10.375Z,28.39235
2022-09-04T15:23:11.668Z,27.77555
2022-09-04T15:28:12.762Z,27.58008
2022-09-04T15:33:13.726Z,27.51869
2022-09-04T15:38:14.651Z,27.41368
2022-09-04T15:43:15.643Z,27.34841
2022-09-04T15:48:16.631Z,27.19397
2022-09-04T15:53:17.554Z,27.04017
2022-09-04T15:58:18.523Z,26.8699
2022-09-04T16:03:19.504Z,26.56781
2022-09-04T16:08:20.586Z,26.35585
2022-09-04T16:13:21.567Z,26.03922
2022-09-04T16:18:22.550Z,25.84375
2022-09-04T16:23:23.532Z,25.70902
2022-09-04T16:28:25.846Z,25.53907
2022-09-04T16:33:27.973Z,25.39271
2022-09-04T16:38:29.656Z,25.33197
2022-09-04T16:43:31.468Z,25.1911
2022-09-04T16:48:33.704Z,25.00435
2022-09-04T16:53:36.222Z,24.87059
2022-09-04T16:58:37.186Z,24.74814
2022-09-04T17:03:38.208Z,24.49387
2022-09-04T17:08:39.164Z,24.20018
2022-09-04T17:13:40.105Z,23.98145
2022-09-04T17:18:45.087Z,23.72233
2022-09-04T17:28:56.327Z,23.53946
2022-09-04T17:40:39.970Z,23.12559
2022-09-04T17:46:01.716Z,22.72755
2022-09-04T17:51:02.660Z,22.50624
2022-09-04T17:56:06.692Z,22.33177
2022-09-04T18:01:15.450Z,22.12144
2022-09-04T18:06:17.009Z,21.89496
2022-09-04T18:11:18.024Z,21.72793
2022-09-04T18:16:19.034Z,21.54345
2022-09-04T18:21:20.004Z,21.37577
2022-09-04T18:26:21.009Z,21.21068
2022-09-04T18:37:11.076Z,21.08694
2022-09-04T18:47:17.407Z,20.69182
2022-09-04T18:55:43.358Z,20.38005
2022-09-04T19:00:44.279Z,20.27053
2022-09-04T19:05:45.505Z,20.1413
2022-09-04T19:10:46.563Z,20.03177
2022-09-04T19:15:47.528Z,19.96619
2022-09-04T19:20:48.517Z,19.89511
2022-09-04T19:25:54.727Z,19.79302
2022-09-04T19:30:56.125Z,19.74133
2022-09-04T19:35:57.155Z,19.69352
2022-09-04T19:46:02.226Z,19.60079
2022-09-04T19:53:23.934Z,19.44475
2022-09-04T19:58:44.082Z,19.28677
2022-09-04T20:03:45.516Z,19.18048
2022-09-04T20:08:46.534Z,19.15399
2022-09-04T20:13:52.445Z,19.08226
2022-09-04T20:18:53.443Z,19.02896
2022-09-04T20:23:54.409Z,19.21505
2022-09-04T20:33:55.986Z,19.36721
2022-09-04T20:38:57.297Z,19.11812
2022-09-04T20:43:58.276Z,18.9427
2022-09-04T20:52:59.851Z,18.80313
2022-09-04T21:03:05.809Z,18.65161
2022-09-04T21:08:17.601Z,18.4148
2022-09-04T21:13:18.537Z,18.34696
2022-09-04T21:18:19.503Z,18.27491
2022-09-04T21:23:20.587Z,18.21224
2022-09-04T21:28:21.575Z,18.18542
2022-09-04T21:33:27.921Z,18.13373
2022-09-04T21:38:30.535Z,18.06621
2022-09-04T21:43:35.827Z,18.01
2022-09-04T21:48:37.377Z,17.90177
2022-09-04T21:53:38.363Z,17.81745
2022-09-04T22:02:29.075Z,17.73894
2022-09-04T22:11:50.287Z,17.60778
2022-09-04T22:18:48.394Z,17.41458
2022-09-04T22:23:49.355Z,17.37711
2022-09-04T22:28:50.294Z,17.33317
2022-09-04T22:34:15.476Z,17.31153
2022-09-04T22:39:18.176Z,17.22301
2022-09-04T22:44:19.121Z,17.15904
2022-09-04T22:49:20.067Z,17.13707
2022-09-04T22:54:21.016Z,17.14159
2022-09-04T22:59:26.941Z,17.11252
2022-09-04T23:04:28.479Z,17.14127
2022-09-04T23:13:50.372Z,17.04306
2022-09-04T23:22:50.677Z,16.9035
2022-09-04T23:31:41.894Z,16.74358
2022-09-04T23:36:43.305Z,16.73098
2022-09-04T23:41:52.603Z,16.71547
2022-09-04T23:46:54.414Z,16.67994
2022-09-04T23:51:55.299Z,16.63568
2022-09-04T23:56:56.233Z,16.58754
